Time;durP1;ratioP1;P1;durP2;ratioP2;P2;SDS_P1;SDS_P2;PMS_P1;PMS_P2;Temp;Humidity;BMP_temperature;BMP_pressure;BME280_temperature;BME280_humidity;BME280_pressure;Samples;Min_cycle;Max_cycle;Signal;HPM_P1;HPM_P2
2022/04/25 00:00:20;;;;;;;;;;;9.40;70.10;;;;;;2107894;28;19915;-92
2022/04/25 00:01:20;;;;;;;;;;;9.40;70.10;;;;;;2102147;28;19976;-92
2022/04/25 00:02:21;;;;;;;;;;;9.40;70.40;;;;;;2102816;28;19963;-92
2022/04/25 00:03:21;;;;;;;;;;;9.40;70.50;;;;;;2085384;28;19914;-94
2022/04/25 00:04:22;;;;;;;;;;;9.40;70.40;;;;;;2084191;28;20386;-92
2022/04/25 00:05:23;;;;;;;;;;;9.30;70.20;;;;;;2087015;28;19917;-93
2022/04/25 00:06:23;;;;;;;;;;;9.30;70.00;;;;;;2104376;28;19939;-92
2022/04/25 00:07:24;;;;;;;;;;;9.30;70.00;;;;;;2104854;28;19954;-91
2022/04/25 00:08:25;;;;;;;;;;;9.30;70.70;;;;;;2092813;28;19909;-86
2022/04/25 00:09:26;;;;;;;;;;;9.30;71.00;;;;;;2093579;28;19917;-88
2022/04/25 00:10:26;;;;;;;;;;;9.30;70.80;;;;;;2088145;28;19996;-92
2022/04/25 00:11:27;;;;;;;;;;;9.30;70.70;;;;;;2082105;28;19917;-93
2022/04/25 00:12:28;;;;;;;;;;;9.20;70.90;;;;;;2083638;28;20020;-94
2022/04/25 00:13:28;;;;;;;;;;;9.20;70.70;;;;;;2091993;28;19935;-93
2022/04/25 00:14:29;;;;;;;;;;;9.20;70.60;;;;;;2097575;28;20399;-92
2022/04/25 00:15:29;;;;;;;;;;;9.20;71.30;;;;;;2097920;28;19951;-93
2022/04/25 00:16:30;;;;;;;;;;;9.20;71.10;;;;;;2087491;28;20284;-92
2022/04/25 00:17:30;;;;;;;;;;;9.20;71.00;;;;;;2090810;28;19931;-87
2022/04/25 00:18:31;;;;;;;;;;;9.20;71.10;;;;;;2087726;28;19937;-95
2022/04/25 00:19:32;;;;;;;;;;;9.20;70.80;;;;;;2090511;28;19948;-92
2022/04/25 00:20:32;;;;;;;;;;;9.20;71.40;;;;;;2087201;28;20456;-94
2022/04/25 00:21:33;;;;;;;;;;;9.20;71.30;;;;;;2083200;28;20055;-93
2022/04/25 00:22:34;;;;;;;;;;;9.20;71.20;;;;;;2091591;28;19917;-93
2022/04/25 00:23:34;;;;;;;;;;;9.10;70.80;;;;;;2100219;28;19923;-93
2022/04/25 00:24:35;;;;;;;;;;;9.10;70.70;;;;;;2108959;28;20270;-93
2022/04/25 00:25:35;;;;;;;;;;;9.10;71.10;;;;;;2091191;28;19917;-93
2022/04/25 00:26:36;;;;;;;;;;;9.10;71.20;;;;;;2091858;28;19916;-94
2022/04/25 00:27:36;;;;;;;;;;;9.10;71.30;;;;;;2080276;28;19917;-93
2022/04/25 00:28:37;;;;;;;;;;;9.10;70.90;;;;;;2078590;28;19972;-93
2022/04/25 00:29:37;;;;;;;;;;;9.10;71.10;;;;;;2091721;28;19920;-93
2022/04/25 00:30:38;;;;;;;;;;;9.10;71.10;;;;;;2082042;28;19924;-92
2022/04/25 00:31:39;;;;;;;;;;;9.10;71.40;;;;;;2083362;28;19921;-92
2022/04/25 00:32:39;;;;;;;;;;;9.10;71.20;;;;;;2075160;28;19914;-91
2022/04/25 00:33:40;;;;;;;;;;;9.10;71.40;;;;;;2075113;28;19914;-93
2022/04/25 00:34:40;;;;;;;;;;;9.00;71.40;;;;;;2077820;28;19983;-94
2022/04/25 00:35:41;;;;;;;;;;;9.00;71.30;;;;;;2087974;28;20406;-93
2022/04/25 00:36:42;;;;;;;;;;;9.00;71.50;;;;;;2099154;28;19956;-93
2022/04/25 00:37:43;;;;;;;;;;;9.00;71.70;;;;;;2096739;28;19920;-92
2022/04/25 00:38:43;;;;;;;;;;;9.00;72.10;;;;;;2091474;28;19917;-93
2022/04/25 00:39:44;;;;;;;;;;;9.00;72.20;;;;;;2084975;28;19924;-93
2022/04/25 00:40:44;;;;;;;;;;;9.00;72.00;;;;;;2083497;28;19924;-92
2022/04/25 00:41:45;;;;;;;;;;;8.90;72.80;;;;;;2089208;28;19913;-94
2022/04/25 00:42:47;;;;;;;;;;;8.90;72.10;;;;;;2097742;28;19932;-92
2022/04/25 00:43:48;;;;;;;;;;;8.90;72.20;;;;;;2091705;28;19923;-94
2022/04/25 00:44:48;;;;;;;;;;;8.90;72.20;;;;;;2091945;28;20318;-93
2022/04/25 00:45:49;;;;;;;;;;;8.90;72.00;;;;;;2099303;28;19919;-92
2022/04/25 00:46:52;;;;;;;;;;;8.90;72.20;;;;;;2091901;28;19960;-93
2022/04/25 00:47:52;;;;;;;;;;;8.80;71.90;;;;;;2091311;28;20354;-93
2022/04/25 00:48:53;;;;;;;;;;;8.80;72.10;;;;;;2092103;28;19976;-93
2022/04/25 00:49:54;;;;;;;;;;;8.80;72.10;;;;;;2088589;28;19917;-92
2022/04/25 00:50:54;;;;;;;;;;;8.80;72.90;;;;;;2081634;28;19921;-92
2022/04/25 00:51:55;;;;;;;;;;;8.80;72.30;;;;;;2074969;28;20024;-95
2022/04/25 00:52:56;;;;;;;;;;;8.80;72.20;;;;;;2091349;28;19916;-93
2022/04/25 00:53:56;;;;;;;;;;;8.80;72.00;;;;;;2103376;28;19956;-94
2022/04/25 00:54:58;;;;;;;;;;;8.80;72.10;;;;;;2091620;28;19923;-92
2022/04/25 00:55:59;;;;;;;;;;;8.80;72.00;;;;;;2090097;28;19912;-94
2022/04/25 00:57:00;;;;;;;;;;;8.80;72.50;;;;;;2101002;28;19917;-92
2022/04/25 00:58:02;;;;;;;;;;;8.80;72.20;;;;;;2107701;28;19908;-93
2022/04/25 00:59:03;;;;;;;;;;;8.80;72.60;;;;;;2108563;28;19931;-93
2022/04/25 01:00:05;;;;;;;;;;;8.80;72.40;;;;;;2094857;28;19913;-93
2022/04/25 01:01:06;;;;;;;;;;;8.70;72.60;;;;;;2086471;28;19923;-92
2022/04/25 01:02:06;;;;;;;;;;;8.70;72.20;;;;;;2096873;28;19920;-92
2022/04/25 01:03:07;;;;;;;;;;;8.70;72.20;;;;;;2109672;28;19926;-93
2022/04/25 01:04:09;;;;;;;;;;;8.70;72.20;;;;;;2100086;28;19912;-92
2022/04/25 01:05:10;;;;;;;;;;;8.70;72.50;;;;;;2106336;28;19962;-93
2022/04/25 01:06:11;;;;;;;;;;;8.70;72.40;;;;;;2090183;28;19978;-93
2022/04/25 01:07:11;;;;;;;;;;;8.70;72.10;;;;;;2081261;28;19996;-92
2022/04/25 01:08:12;;;;;;;;;;;8.70;72.60;;;;;;2101272;28;20302;-93
2022/04/25 01:09:12;;;;;;;;;;;8.70;72.20;;;;;;2110329;28;19912;-93
2022/04/25 01:10:13;;;;;;;;;;;8.70;72.50;;;;;;2102530;28;20352;-93
2022/04/25 01:11:14;;;;;;;;;;;8.70;72.80;;;;;;2092304;28;19975;-92
2022/04/25 01:12:14;;;;;;;;;;;8.70;72.90;;;;;;2082674;28;19982;-92
2022/04/25 01:13:15;;;;;;;;;;;8.70;73.10;;;;;;2083113;28;19994;-92
2022/04/25 01:14:16;;;;;;;;;;;8.70;72.60;;;;;;2084065;28;19913;-93
2022/04/25 01:15:17;;;;;;;;;;;8.70;72.70;;;;;;2094746;28;20015;-91
2022/04/25 01:16:17;;;;;;;;;;;8.60;72.70;;;;;;2091468;28;19916;-92
2022/04/25 01:17:18;;;;;;;;;;;8.60;72.70;;;;;;2086803;28;20391;-92
2022/04/25 01:18:18;;;;;;;;;;;8.60;72.60;;;;;;2091181;28;20005;-93
2022/04/25 01:19:20;;;;;;;;;;;8.60;72.60;;;;;;2104448;28;19973;-94
2022/04/25 01:20:20;;;;;;;;;;;8.60;72.70;;;;;;2094497;28;19920;-93
2022/04/25 01:21:22;;;;;;;;;;;8.60;72.80;;;;;;2087189;28;20386;-92
2022/04/25 01:22:27;;;;;;;;;;;8.60;73.00;;;;;;2089765;28;19912;-93
2022/04/25 01:27:37;;;;;;;;;;;8.50;73.40;;;;;;2078709;28;19917;-93
2022/04/25 01:28:37;;;;;;;;;;;8.50;73.70;;;;;;2099623;28;19991;-93
2022/04/25 01:29:38;;;;;;;;;;;8.50;73.50;;;;;;2093250;28;19939;-93
2022/04/25 01:30:39;;;;;;;;;;;8.40;73.40;;;;;;2099356;28;19917;-93
2022/04/25 01:31:40;;;;;;;;;;;8.40;73.50;;;;;;2097211;28;19956;-92
2022/04/25 01:32:41;;;;;;;;;;;8.40;73.40;;;;;;2082715;28;19925;-94
2022/04/25 01:33:41;;;;;;;;;;;8.40;74.00;;;;;;2090181;28;19918;-94
2022/04/25 01:34:42;;;;;;;;;;;8.40;74.00;;;;;;2082876;28;19975;-93
2022/04/25 01:35:42;;;;;;;;;;;8.40;73.60;;;;;;2091526;28;20011;-94
2022/04/25 01:36:43;;;;;;;;;;;8.40;73.60;;;;;;2091158;28;19920;-92
2022/04/25 01:37:43;;;;;;;;;;;8.40;73.60;;;;;;2078079;28;20290;-94
2022/04/25 01:38:45;;;;;;;;;;;8.40;73.50;;;;;;2090999;28;19920;-94
2022/04/25 01:39:48;;;;;;;;;;;8.40;73.70;;;;;;2103671;28;19935;-93
2022/04/25 01:40:49;;;;;;;;;;;8.40;73.40;;;;;;2095581;28;19917;-92
2022/04/25 01:41:49;;;;;;;;;;;8.40;74.10;;;;;;2098540;28;19980;-93
2022/04/25 01:42:50;;;;;;;;;;;8.30;73.70;;;;;;2112487;28;19900;-86
2022/04/25 01:43:50;;;;;;;;;;;8.30;74.20;;;;;;2101932;28;19901;-90
2022/04/25 01:44:51;;;;;;;;;;;8.30;74.10;;;;;;2081473;28;19953;-93
2022/04/25 01:45:52;;;;;;;;;;;8.30;73.90;;;;;;2090076;28;19976;-86
2022/04/25 01:46:52;;;;;;;;;;;8.30;73.70;;;;;;2101594;28;19897;-89
2022/04/25 01:47:53;;;;;;;;;;;8.30;73.70;;;;;;2109571;28;19905;-87
2022/04/25 01:48:53;;;;;;;;;;;8.30;74.00;;;;;;2096489;28;19917;-93
2022/04/25 01:49:54;;;;;;;;;;;8.30;74.00;;;;;;2091890;28;19913;-94
2022/04/25 01:50:54;;;;;;;;;;;8.30;73.90;;;;;;2094961;28;20275;-92
2022/04/25 01:51:57;;;;;;;;;;;8.30;73.80;;;;;;2098988;28;20385;-92
2022/04/25 01:52:57;;;;;;;;;;;8.30;74.10;;;;;;2103331;28;20369;-92
2022/04/25 01:53:58;;;;;;;;;;;8.20;73.80;;;;;;2109987;28;19908;-91
2022/04/25 01:54:59;;;;;;;;;;;8.20;74.00;;;;;;2106575;28;19913;-84
2022/04/25 01:56:00;;;;;;;;;;;8.20;74.00;;;;;;2100765;28;19939;-87
2022/04/25 01:57:03;;;;;;;;;;;8.20;73.90;;;;;;2106192;28;20374;-93
2022/04/25 01:58:04;;;;;;;;;;;8.20;74.10;;;;;;2096351;28;19913;-93
2022/04/25 01:59:04;;;;;;;;;;;8.20;74.60;;;;;;2099247;28;19921;-93
2022/04/25 02:00:07;;;;;;;;;;;8.20;74.40;;;;;;2090308;28;19979;-93
2022/04/25 02:01:08;;;;;;;;;;;8.20;74.80;;;;;;2090831;28;19913;-92
2022/04/25 02:02:08;;;;;;;;;;;8.10;74.90;;;;;;2088785;28;20393;-93
2022/04/25 02:03:09;;;;;;;;;;;8.10;74.50;;;;;;2090065;28;19912;-92
2022/04/25 02:04:11;;;;;;;;;;;8.10;74.30;;;;;;2089906;28;19919;-94
2022/04/25 02:05:12;;;;;;;;;;;8.10;74.20;;;;;;2091130;28;19951;-92
2022/04/25 02:06:12;;;;;;;;;;;8.10;74.20;;;;;;2090588;28;19920;-92
2022/04/25 02:07:13;;;;;;;;;;;8.20;74.20;;;;;;2082320;28;19917;-93
2022/04/25 02:08:14;;;;;;;;;;;8.20;74.40;;;;;;2080596;28;19983;-93
2022/04/25 02:09:15;;;;;;;;;;;8.10;74.50;;;;;;2090619;28;19942;-92
2022/04/25 02:10:15;;;;;;;;;;;8.10;74.80;;;;;;2099045;28;20050;-93
2022/04/25 02:11:22;;;;;;;;;;;8.10;74.50;;;;;;2084219;28;20383;-92
2022/04/25 02:12:22;;;;;;;;;;;8.10;74.30;;;;;;2081376;28;20373;-92
2022/04/25 02:13:23;;;;;;;;;;;8.00;74.30;;;;;;2084539;28;19956;-93
2022/04/25 02:14:24;;;;;;;;;;;8.00;74.50;;;;;;2089966;28;19916;-92
2022/04/25 02:15:25;;;;;;;;;;;8.00;74.40;;;;;;2072492;28;19925;-92
2022/04/25 02:16:26;;;;;;;;;;;8.00;74.70;;;;;;2082396;28;19944;-93
2022/04/25 02:17:26;;;;;;;;;;;8.00;74.50;;;;;;2090827;28;19971;-92
2022/04/25 02:18:27;;;;;;;;;;;8.00;74.70;;;;;;2082772;28;20054;-93
2022/04/25 02:19:28;;;;;;;;;;;8.00;74.40;;;;;;2090386;28;19951;-92
2022/04/25 02:20:29;;;;;;;;;;;8.00;74.60;;;;;;2091101;28;19920;-93
2022/04/25 02:21:29;;;;;;;;;;;8.00;74.70;;;;;;2076061;28;20422;-92
2022/04/25 02:22:30;;;;;;;;;;;8.00;74.50;;;;;;2082207;28;19913;-93
2022/04/25 02:23:30;;;;;;;;;;;8.00;74.40;;;;;;2091480;28;19912;-93
2022/04/25 02:24:31;;;;;;;;;;;8.00;74.70;;;;;;2087850;28;19931;-90
2022/04/25 02:25:31;;;;;;;;;;;8.00;75.00;;;;;;2080214;28;19924;-93
2022/04/25 02:26:32;;;;;;;;;;;8.00;74.80;;;;;;2075585;28;20391;-93
2022/04/25 02:27:33;;;;;;;;;;;8.00;74.90;;;;;;2086789;28;20051;-94
2022/04/25 02:28:34;;;;;;;;;;;7.90;74.80;;;;;;2080109;28;19913;-93
2022/04/25 02:29:36;;;;;;;;;;;8.00;74.90;;;;;;2083820;28;19935;-93
2022/04/25 02:30:37;;;;;;;;;;;7.90;74.70;;;;;;2098765;28;19920;-92
2022/04/25 02:31:37;;;;;;;;;;;7.90;75.30;;;;;;2107807;28;20504;-92
2022/04/25 02:32:38;;;;;;;;;;;7.90;75.20;;;;;;2100344;28;20325;-93
2022/04/25 02:33:40;;;;;;;;;;;7.90;75.30;;;;;;2096733;28;19998;-94
2022/04/25 02:34:41;;;;;;;;;;;7.90;74.90;;;;;;2090740;28;19924;-92
2022/04/25 02:35:41;;;;;;;;;;;7.90;74.70;;;;;;2090487;28;19917;-93
2022/04/25 02:36:42;;;;;;;;;;;7.90;74.70;;;;;;2075951;28;20438;-92
2022/04/25 02:37:42;;;;;;;;;;;7.90;74.70;;;;;;2082472;28;19913;-93
2022/04/25 02:38:43;;;;;;;;;;;7.90;74.50;;;;;;2082746;28;19913;-93
2022/04/25 02:39:43;;;;;;;;;;;7.90;74.50;;;;;;2082631;28;20356;-93
2022/04/25 02:40:44;;;;;;;;;;;7.90;74.50;;;;;;2082820;28;19984;-93
2022/04/25 02:41:45;;;;;;;;;;;7.90;74.50;;;;;;2093230;28;19969;-92
2022/04/25 02:42:48;;;;;;;;;;;7.90;74.60;;;;;;2089891;28;19920;-92
2022/04/25 02:43:48;;;;;;;;;;;7.80;74.50;;;;;;2083636;28;20012;-93
2022/04/25 02:44:49;;;;;;;;;;;7.90;74.70;;;;;;2082954;28;19925;-91
2022/04/25 02:45:49;;;;;;;;;;;7.80;74.50;;;;;;2078331;28;20298;-94
2022/04/25 02:46:50;;;;;;;;;;;7.80;74.50;;;;;;2082200;28;20003;-94
2022/04/25 02:47:51;;;;;;;;;;;7.90;74.70;;;;;;2082666;28;20376;-93
2022/04/25 02:48:52;;;;;;;;;;;7.80;74.70;;;;;;2082552;28;20355;-93
2022/04/25 02:49:53;;;;;;;;;;;7.80;74.60;;;;;;2090730;28;19917;-92
2022/04/25 02:50:53;;;;;;;;;;;7.90;75.10;;;;;;2097333;28;19912;-92
2022/04/25 02:51:54;;;;;;;;;;;7.80;75.00;;;;;;2098268;28;19931;-93
2022/04/25 02:52:54;;;;;;;;;;;7.80;74.80;;;;;;2087758;28;19940;-91
2022/04/25 02:53:55;;;;;;;;;;;7.80;74.70;;;;;;2073877;28;20417;-94
2022/04/25 02:54:55;;;;;;;;;;;7.80;75.00;;;;;;2088986;28;20404;-92
2022/04/25 02:55:56;;;;;;;;;;;7.80;75.00;;;;;;2093293;28;19917;-93
2022/04/25 02:56:56;;;;;;;;;;;7.80;75.40;;;;;;2091055;28;19912;-93
2022/04/25 02:57:57;;;;;;;;;;;7.80;75.80;;;;;;2090384;28;19913;-92
2022/04/25 02:58:58;;;;;;;;;;;7.70;75.30;;;;;;2094649;28;19908;-91
2022/04/25 02:59:59;;;;;;;;;;;7.70;75.30;;;;;;2082527;28;19917;-92
2022/04/25 03:01:00;;;;;;;;;;;7.70;75.40;;;;;;2082446;28;19996;-93
2022/04/25 03:02:01;;;;;;;;;;;7.70;75.40;;;;;;2090374;28;20027;-92
2022/04/25 03:03:01;;;;;;;;;;;7.60;75.20;;;;;;2097508;28;20326;-93
2022/04/25 03:04:02;;;;;;;;;;;7.60;75.30;;;;;;2082149;28;20314;-94
2022/04/25 03:05:03;;;;;;;;;;;7.60;75.30;;;;;;2088673;28;19917;-93
2022/04/25 03:06:04;;;;;;;;;;;7.70;75.40;;;;;;2100118;28;19929;-92
2022/04/25 03:07:05;;;;;;;;;;;7.60;75.40;;;;;;2089697;28;19917;-93
2022/04/25 03:08:06;;;;;;;;;;;7.60;75.40;;;;;;2090085;28;19985;-92
2022/04/25 03:09:06;;;;;;;;;;;7.60;75.40;;;;;;2091616;28;20492;-93
2022/04/25 03:10:07;;;;;;;;;;;7.60;75.70;;;;;;2092955;28;19917;-93
2022/04/25 03:11:08;;;;;;;;;;;7.60;75.80;;;;;;2082243;28;19921;-92
2022/04/25 03:12:09;;;;;;;;;;;7.60;75.90;;;;;;2080346;28;20023;-93
2022/04/25 03:13:10;;;;;;;;;;;7.50;75.90;;;;;;2097137;28;19912;-93
2022/04/25 03:14:10;;;;;;;;;;;7.50;76.20;;;;;;2099465;28;19918;-92
2022/04/25 03:15:11;;;;;;;;;;;7.50;76.00;;;;;;2089479;28;20012;-92
2022/04/25 03:16:12;;;;;;;;;;;7.50;76.20;;;;;;2089875;28;19991;-93
2022/04/25 03:17:12;;;;;;;;;;;7.50;76.20;;;;;;2094276;28;19925;-93
2022/04/25 03:18:13;;;;;;;;;;;7.50;76.00;;;;;;2083912;28;19949;-93
2022/04/25 03:19:14;;;;;;;;;;;7.50;76.20;;;;;;2082252;28;19913;-92
2022/04/25 03:20:15;;;;;;;;;;;7.50;76.30;;;;;;2082189;28;19921;-93
2022/04/25 03:21:15;;;;;;;;;;;7.50;76.50;;;;;;2076186;28;20033;-93
2022/04/25 03:22:15;;;;;;;;;;;7.40;76.40;;;;;;2082062;28;20037;-94
2022/04/25 03:23:20;;;;;;;;;;;7.40;76.30;;;;;;2078244;28;19924;-92
2022/04/25 03:24:20;;;;;;;;;;;7.40;76.50;;;;;;2090751;28;20390;-93
2022/04/25 03:25:21;;;;;;;;;;;7.40;76.30;;;;;;2082011;28;19917;-92
2022/04/25 03:26:21;;;;;;;;;;;7.40;76.60;;;;;;2084631;28;19963;-92
2022/04/25 03:27:22;;;;;;;;;;;7.40;76.50;;;;;;2093010;28;19924;-92
2022/04/25 03:28:23;;;;;;;;;;;7.40;76.60;;;;;;2103441;28;19959;-92
2022/04/25 03:29:24;;;;;;;;;;;7.30;76.50;;;;;;2098650;28;19903;-82
2022/04/25 03:30:25;;;;;;;;;;;7.40;77.10;;;;;;2098682;28;19916;-81
2022/04/25 03:31:25;;;;;;;;;;;7.40;77.20;;;;;;2100340;28;19897;-92
2022/04/25 03:32:26;;;;;;;;;;;7.40;77.00;;;;;;2088360;28;20437;-93
2022/04/25 03:33:31;;;;;;;;;;;7.40;77.00;;;;;;2094043;28;19917;-87
2022/04/25 03:34:31;;;;;;;;;;;7.40;77.00;;;;;;2092883;28;19924;-81
2022/04/25 03:35:32;;;;;;;;;;;7.40;77.10;;;;;;2093755;28;19955;-92
2022/04/25 03:36:33;;;;;;;;;;;7.40;77.30;;;;;;2087497;28;20422;-93
2022/04/25 03:37:36;;;;;;;;;;;7.40;77.10;;;;;;2092679;28;20290;-93
2022/04/25 03:38:41;;;;;;;;;;;7.40;76.80;;;;;;2091889;28;20409;-92
2022/04/25 03:39:41;;;;;;;;;;;7.40;76.60;;;;;;2085187;28;19913;-93
2022/04/25 03:40:43;;;;;;;;;;;7.40;76.70;;;;;;2079111;28;19920;-93
2022/04/25 03:41:43;;;;;;;;;;;7.40;76.80;;;;;;2093860;28;19913;-91
2022/04/25 03:42:44;;;;;;;;;;;7.50;76.80;;;;;;2105132;28;19917;-82
2022/04/25 03:43:45;;;;;;;;;;;7.50;76.60;;;;;;2106477;28;19909;-88
2022/04/25 03:44:46;;;;;;;;;;;7.50;76.80;;;;;;2097852;28;20299;-93
2022/04/25 03:45:46;;;;;;;;;;;7.50;76.70;;;;;;2092059;28;19928;-91
2022/04/25 03:46:47;;;;;;;;;;;7.50;76.60;;;;;;2100611;28;19916;-93
2022/04/25 03:47:48;;;;;;;;;;;7.50;76.60;;;;;;2091960;28;19913;-93
2022/04/25 03:48:48;;;;;;;;;;;7.50;76.50;;;;;;2084216;28;19924;-92
2022/04/25 03:49:49;;;;;;;;;;;7.50;76.80;;;;;;2091541;28;19962;-91
2022/04/25 03:50:49;;;;;;;;;;;7.50;76.70;;;;;;2083661;28;19913;-92
2022/04/25 03:51:51;;;;;;;;;;;7.50;76.60;;;;;;2089867;28;19919;-92
2022/04/25 03:52:51;;;;;;;;;;;7.50;76.50;;;;;;2083656;28;19913;-92
2022/04/25 03:53:52;;;;;;;;;;;7.50;77.00;;;;;;2091725;28;19913;-94
2022/04/25 03:57:30;;;;;;;;;;;7.50;76.80;;;;;;2096434;28;19986;-92
2022/04/25 03:58:31;;;;;;;;;;;7.60;77.20;;;;;;2093859;28;19912;-93
2022/04/25 03:59:32;;;;;;;;;;;7.60;76.80;;;;;;2083636;28;19995;-92
2022/04/25 04:00:33;;;;;;;;;;;7.60;77.00;;;;;;2075339;28;19924;-92
2022/04/25 04:01:35;;;;;;;;;;;7.60;77.00;;;;;;2075767;28;19999;-91
2022/04/25 04:02:36;;;;;;;;;;;7.60;77.10;;;;;;2084884;28;20386;-92
2022/04/25 04:03:36;;;;;;;;;;;7.60;76.90;;;;;;2091810;28;19919;-92
2022/04/25 04:04:37;;;;;;;;;;;7.70;77.00;;;;;;2094369;28;20358;-93
2022/04/25 04:05:37;;;;;;;;;;;7.70;76.90;;;;;;2095479;28;19913;-95
2022/04/25 04:06:38;;;;;;;;;;;7.70;77.20;;;;;;2097663;28;19909;-92
2022/04/25 04:07:39;;;;;;;;;;;7.70;77.10;;;;;;2095022;28;20382;-93
2022/04/25 04:08:39;;;;;;;;;;;7.80;76.90;;;;;;2100036;28;20351;-94
2022/04/25 04:09:46;;;;;;;;;;;7.80;77.20;;;;;;2100262;28;19981;-93
2022/04/25 04:10:46;;;;;;;;;;;7.80;77.20;;;;;;2084400;28;19917;-92
2022/04/25 04:11:47;;;;;;;;;;;7.80;76.90;;;;;;2092746;28;19970;-92
2022/04/25 04:12:47;;;;;;;;;;;7.80;77.20;;;;;;2091055;28;19960;-93
2022/04/25 04:13:48;;;;;;;;;;;7.80;77.20;;;;;;2083202;28;20466;-93
2022/04/25 04:14:49;;;;;;;;;;;7.90;77.40;;;;;;2097594;28;19913;-93
2022/04/25 04:15:50;;;;;;;;;;;7.80;77.60;;;;;;2094885;28;20408;-93
2022/04/25 04:16:51;;;;;;;;;;;7.90;77.30;;;;;;2090378;28;20393;-94
2022/04/25 04:17:51;;;;;;;;;;;7.90;77.70;;;;;;2091725;28;19917;-94
2022/04/25 04:18:52;;;;;;;;;;;7.90;77.20;;;;;;2091787;28;20004;-94
2022/04/25 04:19:53;;;;;;;;;;;7.90;77.60;;;;;;2083327;28;19917;-93
2022/04/25 04:20:54;;;;;;;;;;;7.90;77.90;;;;;;2090704;28;19927;-93
2022/04/25 04:21:54;;;;;;;;;;;7.90;77.90;;;;;;2099821;28;20470;-93
2022/04/25 04:22:55;;;;;;;;;;;7.90;77.40;;;;;;2099536;28;19966;-94
2022/04/25 04:23:55;;;;;;;;;;;7.90;77.20;;;;;;2099420;28;20422;-93
2022/04/25 04:25:02;;;;;;;;;;;8.00;77.80;;;;;;2094207;28;19912;-93
2022/04/25 04:26:04;;;;;;;;;;;8.00;77.30;;;;;;2096355;28;19908;-92
2022/04/25 04:27:06;;;;;;;;;;;8.00;78.00;;;;;;2100100;28;19916;-92
2022/04/25 04:28:07;;;;;;;;;;;8.00;77.60;;;;;;2091665;28;19909;-94
2022/04/25 04:29:08;;;;;;;;;;;8.00;77.60;;;;;;2099324;28;19931;-93
2022/04/25 04:30:10;;;;;;;;;;;8.00;77.40;;;;;;2100504;28;20385;-94
2022/04/25 04:31:11;;;;;;;;;;;8.00;77.70;;;;;;2092291;28;19959;-94
2022/04/25 04:32:13;;;;;;;;;;;8.00;77.60;;;;;;2091642;28;19921;-93
2022/04/25 04:33:14;;;;;;;;;;;8.00;77.40;;;;;;2092039;28;19909;-92
2022/04/25 04:34:14;;;;;;;;;;;8.10;77.30;;;;;;2083569;28;19913;-93
2022/04/25 04:36:17;;;;;;;;;;;8.10;77.70;;;;;;2082999;28;20295;-93
2022/04/25 04:36:37;;;;;;;;;;;8.10;77.80;;;;;;2093807;28;19912;-95
2022/04/25 04:37:39;;;;;;;;;;;8.10;78.40;;;;;;2092195;28;19954;-95
2022/04/25 04:38:40;;;;;;;;;;;8.10;77.70;;;;;;2093776;28;19909;-93
2022/04/25 04:39:41;;;;;;;;;;;8.10;77.90;;;;;;2084151;28;20003;-92
2022/04/25 04:40:41;;;;;;;;;;;8.20;77.90;;;;;;2085881;28;20486;-92
2022/04/25 04:41:41;;;;;;;;;;;8.20;77.60;;;;;;2099789;28;19913;-95
2022/04/25 04:42:42;;;;;;;;;;;8.20;77.40;;;;;;2095859;28;19984;-94
2022/04/25 04:43:43;;;;;;;;;;;8.20;77.70;;;;;;2097888;28;19916;-92
2022/04/25 04:44:45;;;;;;;;;;;8.20;78.00;;;;;;2085902;28;19952;-93
2022/04/25 04:45:46;;;;;;;;;;;8.20;78.10;;;;;;2098575;28;19928;-86
2022/04/25 04:46:47;;;;;;;;;;;8.30;78.10;;;;;;2092291;28;19901;-88
2022/04/25 04:47:47;;;;;;;;;;;8.20;77.60;;;;;;2077476;28;19918;-93
2022/04/25 04:48:48;;;;;;;;;;;8.30;78.00;;;;;;2089221;28;20322;-92
2022/04/25 04:49:48;;;;;;;;;;;8.30;77.70;;;;;;2083147;28;19913;-93
2022/04/25 04:50:55;;;;;;;;;;;8.30;78.00;;;;;;2091951;28;20383;-93
2022/04/25 04:51:55;;;;;;;;;;;8.30;78.00;;;;;;2086239;28;19921;-92
2022/04/25 04:52:57;;;;;;;;;;;8.30;78.00;;;;;;2091921;28;19912;-94
2022/04/25 04:53:59;;;;;;;;;;;8.30;78.10;;;;;;2096986;28;19916;-92
2022/04/25 04:55:00;;;;;;;;;;;8.30;78.30;;;;;;2090243;28;19917;-92
2022/04/25 04:56:00;;;;;;;;;;;8.30;78.50;;;;;;2091114;28;20297;-94
2022/04/25 04:57:01;;;;;;;;;;;8.40;78.60;;;;;;2083228;28;20418;-94
2022/04/25 04:58:02;;;;;;;;;;;8.40;78.50;;;;;;2082826;28;19956;-95
2022/04/25 04:59:03;;;;;;;;;;;8.40;78.40;;;;;;2078416;28;19917;-91
2022/04/25 05:00:04;;;;;;;;;;;8.30;78.40;;;;;;2091961;28;19936;-91
2022/04/25 05:01:05;;;;;;;;;;;8.40;78.40;;;;;;2094355;28;19920;-94
2022/04/25 05:02:06;;;;;;;;;;;8.40;78.10;;;;;;2099005;28;19917;-91
2022/04/25 05:03:06;;;;;;;;;;;8.40;78.20;;;;;;2093450;28;20379;-88
2022/04/25 05:04:07;;;;;;;;;;;8.40;78.20;;;;;;2090732;28;19917;-86
2022/04/25 05:05:07;;;;;;;;;;;8.40;78.30;;;;;;2082001;28;19917;-91
2022/04/25 05:06:08;;;;;;;;;;;8.40;78.40;;;;;;2082725;28;19964;-92
2022/04/25 05:07:09;;;;;;;;;;;8.40;78.10;;;;;;2099362;28;19917;-92
2022/04/25 05:08:09;;;;;;;;;;;8.40;78.10;;;;;;2098580;28;19947;-92
2022/04/25 05:09:09;;;;;;;;;;;8.40;77.90;;;;;;2092055;28;19908;-91
2022/04/25 05:10:10;;;;;;;;;;;8.40;78.00;;;;;;2091396;28;19917;-91
2022/04/25 05:11:11;;;;;;;;;;;8.40;78.10;;;;;;2091208;28;19920;-91
2022/04/25 05:12:11;;;;;;;;;;;8.50;78.00;;;;;;2091121;28;19917;-90
2022/04/25 05:13:12;;;;;;;;;;;8.40;77.70;;;;;;2085016;28;19913;-90
2022/04/25 05:14:14;;;;;;;;;;;8.40;77.90;;;;;;2086115;28;19913;-92
2022/04/25 05:15:15;;;;;;;;;;;8.50;77.80;;;;;;2079994;28;19918;-92
2022/04/25 05:16:15;;;;;;;;;;;8.40;77.90;;;;;;2078284;28;19917;-90
2022/04/25 05:17:16;;;;;;;;;;;8.50;78.10;;;;;;2086520;28;20287;-91
2022/04/25 05:18:17;;;;;;;;;;;8.50;78.00;;;;;;2106714;28;19913;-91
2022/04/25 05:19:17;;;;;;;;;;;8.40;78.30;;;;;;2091811;28;19913;-92
2022/04/25 05:20:18;;;;;;;;;;;8.50;78.50;;;;;;2097753;28;19917;-92
2022/04/25 05:21:19;;;;;;;;;;;8.50;78.30;;;;;;2098350;28;19966;-91
2022/04/25 05:22:19;;;;;;;;;;;8.50;78.20;;;;;;2101370;28;19948;-88
2022/04/25 05:23:20;;;;;;;;;;;8.50;78.30;;;;;;2107765;28;19924;-89
2022/04/25 05:24:20;;;;;;;;;;;8.50;78.30;;;;;;2097905;28;19916;-90
2022/04/25 05:25:21;;;;;;;;;;;8.50;78.10;;;;;;2100211;28;19940;-91
2022/04/25 05:26:23;;;;;;;;;;;8.50;78.60;;;;;;2091159;28;20012;-91
2022/04/25 05:27:24;;;;;;;;;;;8.50;78.80;;;;;;2091792;28;19917;-92
2022/04/25 05:28:25;;;;;;;;;;;8.50;78.40;;;;;;2099638;28;19916;-90
2022/04/25 05:29:25;;;;;;;;;;;8.50;78.30;;;;;;2094942;28;19971;-92
2022/04/25 05:30:27;;;;;;;;;;;8.50;78.40;;;;;;2099705;28;19944;-92
2022/04/25 05:31:27;;;;;;;;;;;8.50;78.60;;;;;;2102091;28;19904;-90
2022/04/25 05:32:39;;;;;;;;;;;8.50;78.50;;;;;;2102130;28;19992;-92
2022/04/25 05:33:39;;;;;;;;;;;8.50;78.50;;;;;;2095798;28;20168;-93
2022/04/25 05:34:40;;;;;;;;;;;8.50;78.40;;;;;;2091863;28;19925;-92
2022/04/25 05:35:41;;;;;;;;;;;8.50;78.60;;;;;;2082672;28;19913;-93
2022/04/25 05:36:42;;;;;;;;;;;8.50;78.30;;;;;;2085781;28;20476;-92
2022/04/25 05:37:43;;;;;;;;;;;8.50;78.50;;;;;;2099062;28;19932;-90
2022/04/25 05:38:44;;;;;;;;;;;8.50;78.90;;;;;;2098967;28;19955;-91
2022/04/25 05:39:44;;;;;;;;;;;8.50;78.60;;;;;;2098765;28;19913;-95
2022/04/25 05:40:48;;;;;;;;;;;8.50;78.30;;;;;;2106361;28;19994;-92
2022/04/25 05:41:49;;;;;;;;;;;8.50;78.30;;;;;;2091241;28;19960;-93
2022/04/25 05:42:50;;;;;;;;;;;8.50;78.30;;;;;;2090781;28;20347;-93
2022/04/25 05:43:51;;;;;;;;;;;8.50;78.30;;;;;;2086916;28;20007;-92
2022/04/25 05:44:51;;;;;;;;;;;8.50;78.90;;;;;;2082267;28;19925;-94
2022/04/25 05:45:52;;;;;;;;;;;8.50;78.50;;;;;;2089040;28;19923;-93
2022/04/25 05:46:54;;;;;;;;;;;8.50;78.30;;;;;;2099745;28;19912;-93
2022/04/25 05:47:56;;;;;;;;;;;8.50;78.40;;;;;;2099228;28;19927;-92
2022/04/25 05:52:55;;;;;;;;;;;8.50;78.30;;;;;;2096512;28;19923;-94
2022/04/25 05:53:56;;;;;;;;;;;8.50;78.50;;;;;;2093696;28;19913;-92
2022/04/25 05:54:56;;;;;;;;;;;8.50;78.40;;;;;;2088366;28;19921;-92
2022/04/25 05:55:57;;;;;;;;;;;8.50;78.60;;;;;;2090891;28;20286;-93
2022/04/25 05:56:57;;;;;;;;;;;8.60;78.60;;;;;;2099050;28;19924;-93
2022/04/25 05:58:00;;;;;;;;;;;8.50;78.70;;;;;;2090715;28;19916;-93
2022/04/25 05:59:01;;;;;;;;;;;8.50;78.40;;;;;;2090691;28;19939;-94
2022/04/25 06:00:01;;;;;;;;;;;8.50;79.40;;;;;;2082428;28;19921;-96
2022/04/25 06:01:02;;;;;;;;;;;8.60;79.00;;;;;;2086692;28;19947;-92
2022/04/25 06:02:03;;;;;;;;;;;8.60;79.00;;;;;;2081933;28;19917;-93
2022/04/25 06:03:03;;;;;;;;;;;8.60;79.00;;;;;;2074432;28;19913;-92
2022/04/25 06:04:04;;;;;;;;;;;8.60;79.10;;;;;;2083057;28;19913;-94
2022/04/25 06:05:05;;;;;;;;;;;8.60;78.80;;;;;;2099735;28;19912;-93
2022/04/25 06:06:06;;;;;;;;;;;8.60;78.60;;;;;;2098611;28;19917;-93
2022/04/25 06:07:06;;;;;;;;;;;8.60;78.90;;;;;;2092138;28;20065;-92
2022/04/25 06:08:07;;;;;;;;;;;8.60;78.90;;;;;;2076696;28;19913;-94
2022/04/25 06:09:07;;;;;;;;;;;8.60;78.70;;;;;;2074600;28;19937;-94
2022/04/25 06:10:09;;;;;;;;;;;8.60;79.30;;;;;;2082567;28;19909;-94
2022/04/25 06:11:09;;;;;;;;;;;8.60;79.00;;;;;;2091298;28;19927;-93